createdAt,value
2019-05-07T03:01:17.688Z,3.60
2019-05-07T03:03:46.248Z,3.50
2019-05-07T03:06:15.722Z,3.50
2019-05-07T03:08:45.774Z,3.60
2019-05-07T03:11:14.575Z,3.50
2019-05-07T03:13:43.382Z,3.50
2019-05-07T03:16:13.221Z,3.40
2019-05-07T03:18:43.770Z,3.30
2019-05-07T03:21:15.370Z,3.40
2019-05-07T03:23:53.794Z,3.30
2019-05-07T03:26:24.113Z,3.30
2019-05-07T03:28:57.792Z,3.30
2019-05-07T03:31:56.270Z,3.30
2019-05-07T03:34:37.037Z,3.20
2019-05-07T03:37:06.651Z,3.30
2019-05-07T03:39:35.395Z,3.20
2019-05-07T03:42:04.871Z,3.10
2019-05-07T03:44:53.782Z,3.00
2019-05-07T03:47:27.088Z,3.00
2019-05-07T03:49:55.671Z,3.10
2019-05-07T03:52:24.679Z,3.10
2019-05-07T03:54:54.096Z,3.00
2019-05-07T03:57:23.668Z,3.00
2019-05-07T03:59:53.464Z,3.10
2019-05-07T04:02:23.764Z,3.00
2019-05-07T04:04:53.000Z,2.90
2019-05-07T04:07:23.273Z,2.90
2019-05-07T04:09:53.442Z,2.90
2019-05-07T04:12:23.943Z,2.90
2019-05-07T04:14:53.598Z,2.90
2019-05-07T04:17:26.461Z,2.90
2019-05-07T04:19:53.281Z,2.90
2019-05-07T04:22:25.194Z,3.00
2019-05-07T04:25:16.346Z,3.00
2019-05-07T04:27:52.763Z,3.00
2019-05-07T04:30:23.620Z,3.00
2019-05-07T04:32:53.347Z,3.00
2019-05-07T04:35:28.403Z,3.00
2019-05-07T04:37:56.967Z,3.00
2019-05-07T04:40:25.531Z,2.90
2019-05-07T04:42:54.195Z,2.90
2019-05-07T04:45:23.319Z,2.90
2019-05-07T04:47:53.827Z,3.00
2019-05-07T04:50:37.923Z,3.10
2019-05-07T04:52:55.712Z,3.10
2019-05-07T04:55:24.272Z,3.10
2019-05-07T04:57:53.507Z,3.20
2019-05-07T05:00:22.995Z,3.30
2019-05-07T05:03:03.370Z,3.40
2019-05-07T05:05:33.010Z,3.50
2019-05-07T05:08:03.855Z,3.60
2019-05-07T05:10:33.687Z,3.70
2019-05-07T05:13:03.320Z,3.80
2019-05-07T05:15:32.190Z,3.90
2019-05-07T05:18:02.644Z,3.90
2019-05-07T05:20:37.171Z,4.00
2019-05-07T05:23:13.247Z,3.90
2019-05-07T05:25:43.129Z,4.00
2019-05-07T05:28:13.398Z,4.10
2019-05-07T05:30:45.592Z,4.20
2019-05-07T05:33:14.147Z,4.20
2019-05-07T05:35:43.365Z,4.30
2019-05-07T05:38:12.688Z,4.20
2019-05-07T05:40:42.694Z,4.30
2019-05-07T05:43:31.934Z,4.40
2019-05-07T05:46:02.761Z,4.50
2019-05-07T05:48:33.299Z,4.60
2019-05-07T05:51:26.902Z,4.70
2019-05-07T05:54:01.906Z,4.70
2019-05-07T05:56:35.882Z,4.90
2019-05-07T05:59:27.791Z,5.00
2019-05-07T06:02:06.384Z,5.10
2019-05-07T06:04:44.466Z,5.20
2019-05-07T06:07:24.102Z,5.30
2019-05-07T06:10:12.699Z,5.20
2019-05-07T06:12:49.044Z,5.30
2019-05-07T06:15:42.945Z,5.40
2019-05-07T06:18:32.596Z,5.50
2019-05-07T06:21:13.123Z,5.50
2019-05-07T06:23:52.811Z,5.70
2019-05-07T06:26:22.782Z,5.80
2019-05-07T06:28:51.931Z,5.90
2019-05-07T06:31:22.154Z,6.00
2019-05-07T06:33:52.340Z,6.10
2019-05-07T06:36:21.999Z,6.20
2019-05-07T06:39:02.898Z,6.30
2019-05-07T06:41:49.238Z,6.30
2019-05-07T06:44:22.410Z,6.50
2019-05-07T06:46:52.658Z,6.50
2019-05-07T06:49:22.275Z,6.50
2019-05-07T06:51:52.793Z,6.60
2019-05-07T06:54:22.561Z,6.70
2019-05-07T06:56:52.381Z,6.90
2019-05-07T06:59:27.070Z,7.00
2019-05-07T07:02:13.893Z,7.00
2019-05-07T07:04:51.890Z,7.00
2019-05-07T07:07:30.985Z,7.10
2019-05-07T07:10:07.822Z,7.20
2019-05-07T07:12:36.414Z,7.30
2019-05-07T07:15:05.364Z,7.40
2019-05-07T07:17:33.930Z,7.50
2019-05-07T07:20:02.514Z,7.70
2019-05-07T07:22:31.993Z,7.70
2019-05-07T07:25:02.538Z,7.90
2019-05-07T07:27:32.172Z,7.90
2019-05-07T07:30:13.486Z,8.00
2019-05-07T07:32:44.818Z,8.10
2019-05-07T07:35:15.030Z,8.20
2019-05-07T07:37:43.624Z,8.40
2019-05-07T07:40:22.432Z,8.60
2019-05-07T07:42:52.042Z,8.70
2019-05-07T07:45:22.827Z,8.70
2019-05-07T07:47:53.031Z,8.90
2019-05-07T07:50:22.439Z,9.00
2019-05-07T07:52:52.958Z,9.20
2019-05-07T07:55:26.348Z,9.40
2019-05-07T07:58:16.847Z,9.50
2019-05-07T08:00:52.305Z,9.60
2019-05-07T08:03:22.568Z,9.90
2019-05-07T08:05:51.888Z,10.40
2019-05-07T08:08:21.977Z,11.10
2019-05-07T08:10:52.029Z,11.60
2019-05-07T08:13:22.892Z,12.10
2019-05-07T08:15:51.951Z,12.40
2019-05-07T08:18:22.237Z,12.60
2019-05-07T08:20:51.962Z,12.60
2019-05-07T08:23:22.530Z,13.00
2019-05-07T08:25:52.549Z,13.00
2019-05-07T08:28:23.280Z,13.50
2019-05-07T08:30:58.926Z,13.90
2019-05-07T08:33:32.277Z,14.10
2019-05-07T08:36:15.151Z,14.40
2019-05-07T08:38:52.632Z,14.70
2019-05-07T08:41:22.474Z,14.90
2019-05-07T08:44:07.757Z,15.30
2019-05-07T08:46:48.289Z,14.90
2019-05-07T08:49:17.555Z,14.40
2019-05-07T08:51:51.863Z,14.10
2019-05-07T08:54:20.142Z,14.60
2019-05-07T08:56:48.702Z,15.00
2019-05-07T08:59:17.373Z,15.40
2019-05-07T09:01:45.938Z,15.30
2019-05-07T09:04:14.500Z,15.60
2019-05-07T09:06:43.226Z,15.70
2019-05-07T09:09:13.110Z,15.60
2019-05-07T09:11:42.579Z,15.30
2019-05-07T09:14:12.573Z,15.30
2019-05-07T09:16:42.729Z,14.70
2019-05-07T09:19:12.871Z,14.50
2019-05-07T09:21:42.827Z,14.20
2019-05-07T09:24:12.298Z,14.30
2019-05-07T09:26:49.551Z,14.10
2019-05-07T09:29:43.244Z,13.70
2019-05-07T09:32:27.304Z,13.60
2019-05-07T09:34:56.190Z,13.50
2019-05-07T09:37:26.948Z,13.80
2019-05-07T09:39:55.618Z,13.70
2019-05-07T09:42:24.203Z,13.60
2019-05-07T09:44:53.016Z,13.50
2019-05-07T09:47:22.037Z,13.60
2019-05-07T09:50:03.903Z,13.40
2019-05-07T09:52:22.840Z,13.30
2019-05-07T09:54:52.278Z,13.50
2019-05-07T09:57:30.241Z,13.50
2019-05-07T09:59:53.126Z,13.60
2019-05-07T10:02:22.691Z,13.50
2019-05-07T10:04:52.729Z,13.40
2019-05-07T10:07:22.290Z,13.40
2019-05-07T10:09:52.327Z,13.40
2019-05-07T10:12:33.064Z,13.80
2019-05-07T10:15:03.041Z,14.50
2019-05-07T10:17:38.343Z,15.30
2019-05-07T10:20:18.322Z,15.60
2019-05-07T10:22:37.426Z,16.30
2019-05-07T10:25:06.003Z,16.80
2019-05-07T10:27:34.930Z,17.10
2019-05-07T10:30:03.618Z,17.20
2019-05-07T10:32:32.507Z,17.70
2019-05-07T10:35:02.204Z,18.00
2019-05-07T10:37:31.852Z,16.90
2019-05-07T10:40:02.857Z,16.80
2019-05-07T10:42:32.276Z,17.30
2019-05-07T10:45:09.122Z,17.40
2019-05-07T10:47:44.887Z,17.40
2019-05-07T10:50:31.703Z,17.40
2019-05-07T10:52:49.246Z,17.10
2019-05-07T10:55:17.886Z,17.00
2019-05-07T10:57:46.458Z,16.80
2019-05-07T11:00:17.234Z,16.90
2019-05-07T11:02:45.802Z,16.00
2019-05-07T11:05:14.395Z,15.40
2019-05-07T11:07:42.958Z,15.00
2019-05-07T11:10:12.346Z,14.40
2019-05-07T11:12:42.519Z,15.30
2019-05-07T11:15:12.643Z,15.80
2019-05-07T11:18:06.500Z,16.40
2019-05-07T11:20:46.330Z,16.40
2019-05-07T11:23:05.396Z,16.00
2019-05-07T11:25:34.319Z,15.10
2019-05-07T11:28:02.963Z,15.10
2019-05-07T11:30:32.066Z,14.90
2019-05-07T11:33:02.709Z,15.10
2019-05-07T11:35:31.921Z,15.70
2019-05-07T11:38:02.623Z,16.40
2019-05-07T11:40:34.464Z,16.80
2019-05-07T11:43:32.848Z,17.80
2019-05-07T11:46:08.598Z,18.00
2019-05-07T11:48:42.611Z,18.80
2019-05-07T11:51:23.132Z,18.80
2019-05-07T11:54:12.744Z,18.20
2019-05-07T11:56:42.333Z,16.50
2019-05-07T11:59:13.130Z,16.40
2019-05-07T12:01:52.763Z,15.70
2019-05-07T12:04:21.394Z,15.50
2019-05-07T12:06:51.980Z,15.80
2019-05-07T12:09:21.797Z,15.90
2019-05-07T12:11:52.029Z,16.30
2019-05-07T12:14:28.851Z,16.00
2019-05-07T12:16:51.062Z,15.90
2019-05-07T12:19:19.627Z,15.60
2019-05-07T12:21:48.194Z,15.70
2019-05-07T12:24:16.774Z,15.10
2019-05-07T12:26:45.414Z,15.10
2019-05-07T12:29:14.011Z,15.10
2019-05-07T12:32:04.520Z,15.20
2019-05-07T12:34:37.054Z,15.40
2019-05-07T12:37:05.617Z,15.20
2019-05-07T12:39:34.179Z,15.20
2019-05-07T12:42:02.851Z,15.30
2019-05-07T12:44:32.071Z,15.70
2019-05-07T12:47:09.358Z,15.90
2019-05-07T12:49:38.163Z,15.90
2019-05-07T12:52:29.615Z,16.40
2019-05-07T12:55:05.442Z,16.70
2019-05-07T12:57:34.014Z,16.40
2019-05-07T13:00:22.808Z,16.10
2019-05-07T13:03:09.570Z,16.20
2019-05-07T13:05:38.170Z,17.10
2019-05-07T13:08:06.826Z,17.10
2019-05-07T13:10:35.454Z,16.50
2019-05-07T13:13:04.046Z,16.00
2019-05-07T13:15:32.969Z,15.50
2019-05-07T13:18:02.771Z,15.70
2019-05-07T13:20:32.011Z,15.50
2019-05-07T13:23:00.775Z,15.60
2019-05-07T13:25:29.362Z,15.20
2019-05-07T13:27:58.087Z,15.30
2019-05-07T13:30:26.726Z,15.30
2019-05-07T13:32:56.270Z,15.30
2019-05-07T13:35:25.683Z,15.30
2019-05-07T13:38:14.673Z,15.40
2019-05-07T13:41:12.577Z,15.50
2019-05-07T13:43:58.418Z,15.50
2019-05-07T13:46:28.220Z,15.20
2019-05-07T13:48:56.787Z,14.90
2019-05-07T13:51:25.350Z,14.90
2019-05-07T13:53:53.936Z,14.90
2019-05-07T13:56:22.873Z,14.60
2019-05-07T13:58:52.238Z,14.40
2019-05-07T14:01:42.500Z,14.20
2019-05-07T14:04:12.869Z,14.10
2019-05-07T14:06:42.990Z,14.20
2019-05-07T14:09:23.979Z,14.40
2019-05-07T14:11:52.747Z,14.90
2019-05-07T14:14:22.325Z,15.00
2019-05-07T14:16:52.981Z,15.10
2019-05-07T14:19:22.384Z,15.30
2019-05-07T14:21:52.499Z,15.40
2019-05-07T14:24:22.374Z,15.40
2019-05-07T14:26:52.749Z,15.30
2019-05-07T14:29:24.306Z,15.30
2019-05-07T14:32:18.226Z,15.20
2019-05-07T14:35:04.656Z,15.10
2019-05-07T14:37:41.734Z,15.30
2019-05-07T14:40:12.769Z,15.10
2019-05-07T14:42:45.930Z,14.80
2019-05-07T14:45:14.571Z,14.70
2019-05-07T14:47:44.717Z,14.60
2019-05-07T14:50:13.522Z,14.60
2019-05-07T14:52:43.214Z,14.70
2019-05-07T14:55:12.835Z,14.70
2019-05-07T14:57:42.069Z,14.90
2019-05-07T15:00:12.228Z,15.00
2019-05-07T15:02:42.138Z,15.10
2019-05-07T15:05:12.010Z,15.00
2019-05-07T15:07:40.810Z,15.00
2019-05-07T15:10:09.379Z,15.00
2019-05-07T15:12:37.975Z,14.90
2019-05-07T15:15:06.559Z,14.70
2019-05-07T15:17:41.993Z,14.70
2019-05-07T15:20:10.598Z,14.70
2019-05-07T15:22:49.708Z,14.70
2019-05-07T15:25:15.675Z,14.70
2019-05-07T15:27:45.343Z,14.80
2019-05-07T15:30:14.102Z,14.80
2019-05-07T15:32:42.847Z,14.70
2019-05-07T15:35:12.625Z,14.80
2019-05-07T15:37:42.714Z,14.70
2019-05-07T15:40:11.529Z,14.60
2019-05-07T15:42:42.010Z,14.60
2019-05-07T15:45:12.357Z,14.60
2019-05-07T15:47:44.554Z,14.60
2019-05-07T15:50:13.119Z,14.60
2019-05-07T15:52:57.714Z,14.50
2019-05-07T15:55:17.702Z,14.20
2019-05-07T15:57:46.544Z,14.10
2019-05-07T16:00:18.427Z,14.00
2019-05-07T16:02:53.569Z,14.00
2019-05-07T16:05:19.729Z,14.10
2019-05-07T16:07:49.579Z,14.20
2019-05-07T16:10:18.167Z,14.10
2019-05-07T16:12:47.106Z,13.90
2019-05-07T16:15:15.667Z,13.90
2019-05-07T16:17:48.708Z,13.90
2019-05-07T16:20:17.274Z,13.80
2019-05-07T16:22:49.169Z,13.80
2019-05-07T16:25:17.730Z,13.80
2019-05-07T16:27:46.299Z,13.80
2019-05-07T16:30:15.058Z,13.60
2019-05-07T16:32:43.631Z,13.60
2019-05-07T16:35:12.577Z,13.60
2019-05-07T16:37:42.856Z,13.50
2019-05-07T16:40:12.667Z,13.40
2019-05-07T16:42:42.904Z,13.40
2019-05-07T16:45:13.152Z,13.40
2019-05-07T16:47:41.924Z,13.30
2019-05-07T16:50:12.780Z,13.30
2019-05-07T16:52:42.042Z,13.20
2019-05-07T16:55:12.247Z,13.20
2019-05-07T16:57:46.823Z,13.10
2019-05-07T17:00:22.221Z,13.20
2019-05-07T17:02:52.271Z,13.20
2019-05-07T17:05:22.728Z,13.20
2019-05-07T17:07:56.402Z,13.10
2019-05-07T17:10:25.036Z,13.10
2019-05-07T17:12:53.728Z,13.00
2019-05-07T17:15:22.814Z,13.00
2019-05-07T17:17:58.924Z,12.90
2019-05-07T17:20:27.514Z,12.90
2019-05-07T17:22:56.095Z,12.80
2019-05-07T17:25:36.880Z,12.80
2019-05-07T17:28:05.470Z,12.80
2019-05-07T17:30:34.285Z,12.70
2019-05-07T17:33:02.880Z,12.60
2019-05-07T17:35:34.185Z,12.60
2019-05-07T17:38:07.210Z,12.50
2019-05-07T17:40:32.582Z,12.40
2019-05-07T17:43:03.009Z,12.40
2019-05-07T17:45:32.797Z,12.30
2019-05-07T17:48:03.230Z,12.30
2019-05-07T17:50:38.102Z,12.30
2019-05-07T17:53:06.739Z,12.20
2019-05-07T17:55:35.630Z,12.20
2019-05-07T17:58:04.215Z,12.10
2019-05-07T18:00:32.985Z,12.10
2019-05-07T18:03:32.244Z,12.00
2019-05-07T18:06:02.283Z,12.00
2019-05-07T18:08:32.445Z,11.90
2019-05-07T18:11:02.314Z,11.90
2019-05-07T18:13:32.293Z,11.80
2019-05-07T18:16:19.739Z,11.80
2019-05-07T18:18:48.319Z,11.70
2019-05-07T18:21:16.878Z,11.60
2019-05-07T18:23:45.498Z,11.60
2019-05-07T18:26:27.207Z,11.50
2019-05-07T18:28:44.402Z,11.40
2019-05-07T18:31:15.771Z,11.40
2019-05-07T18:33:52.335Z,11.30
2019-05-07T18:36:22.729Z,11.20
2019-05-07T18:38:52.829Z,11.10
2019-05-07T18:41:22.312Z,11.10
2019-05-07T18:43:54.406Z,11.00
2019-05-07T18:46:22.221Z,10.90
2019-05-07T18:48:51.818Z,10.80
2019-05-07T18:51:20.572Z,10.80
2019-05-07T18:53:51.533Z,10.70
2019-05-07T18:56:21.883Z,10.70
2019-05-07T18:58:51.932Z,10.60
2019-05-07T19:01:22.523Z,10.60
2019-05-07T19:03:52.571Z,10.50
2019-05-07T19:06:22.340Z,10.40
2019-05-07T19:08:52.657Z,10.40
2019-05-07T19:11:22.874Z,10.40
2019-05-07T19:13:52.558Z,10.40
2019-05-07T19:16:23.027Z,10.30
2019-05-07T19:18:51.751Z,10.20
2019-05-07T19:21:22.242Z,10.20
2019-05-07T19:23:52.808Z,10.10
2019-05-07T19:26:20.985Z,10.10
2019-05-07T19:28:50.006Z,10.00
2019-05-07T19:31:18.583Z,10.00
2019-05-07T19:33:47.151Z,9.90
2019-05-07T19:36:16.038Z,9.90
2019-05-07T19:38:44.608Z,9.80
2019-05-07T19:41:13.189Z,9.70
2019-05-07T19:43:42.050Z,9.70
2019-05-07T19:46:12.295Z,9.60
2019-05-07T19:48:41.161Z,9.60
2019-05-07T19:51:12.028Z,9.50
2019-05-07T19:53:41.923Z,9.50
2019-05-07T19:56:21.701Z,9.40
2019-05-07T19:58:52.656Z,9.40
2019-05-07T20:01:27.062Z,9.40
2019-05-07T20:03:55.665Z,9.30
2019-05-07T20:06:24.234Z,9.30
2019-05-07T20:08:53.144Z,9.20
2019-05-07T20:11:35.959Z,9.20
2019-05-07T20:14:04.546Z,9.20
2019-05-07T20:16:33.280Z,9.20
2019-05-07T20:19:01.865Z,9.10
2019-05-07T20:21:32.630Z,9.00
2019-05-07T20:24:01.871Z,9.00
2019-05-07T20:26:32.647Z,8.90
2019-05-07T20:29:02.883Z,8.90
2019-05-07T20:31:33.491Z,8.80
2019-05-07T20:34:02.328Z,8.80
2019-05-07T20:36:32.715Z,8.70
2019-05-07T20:39:02.210Z,8.70
2019-05-07T20:41:32.529Z,8.70
2019-05-07T20:44:02.832Z,8.70
2019-05-07T20:46:32.021Z,8.70
2019-05-07T20:49:02.699Z,8.60
2019-05-07T20:51:32.584Z,8.50
2019-05-07T20:54:23.443Z,8.50
2019-05-07T20:56:57.467Z,8.50
2019-05-07T20:59:26.029Z,8.40
2019-05-07T21:01:54.836Z,8.40
2019-05-07T21:04:23.430Z,8.40
2019-05-07T21:06:52.593Z,8.30
2019-05-07T21:09:22.075Z,8.20
2019-05-07T21:11:50.895Z,8.20
2019-05-07T21:14:19.470Z,8.20
2019-05-07T21:16:48.082Z,8.10
2019-05-07T21:19:16.684Z,8.10
2019-05-07T21:21:45.294Z,8.20
2019-05-07T21:24:13.895Z,8.10
2019-05-07T21:26:42.612Z,8.00
2019-05-07T21:29:13.736Z,7.90
2019-05-07T21:31:43.059Z,8.00
2019-05-07T21:34:12.574Z,7.90
2019-05-07T21:36:43.249Z,7.90
2019-05-07T21:39:13.105Z,7.90
2019-05-07T21:41:42.697Z,7.90
2019-05-07T21:44:11.498Z,7.90
2019-05-07T21:46:42.324Z,7.90
2019-05-07T21:49:12.279Z,7.80
2019-05-07T21:51:40.650Z,7.80
2019-05-07T21:54:23.662Z,7.70
2019-05-07T21:57:12.928Z,7.70
2019-05-07T21:59:43.190Z,7.70
2019-05-07T23:32:35.591Z,6.60
2019-05-07T23:35:04.187Z,6.50
2019-05-07T23:37:33.234Z,6.50
2019-05-07T23:40:04.955Z,6.50
2019-05-07T23:42:35.617Z,6.40
2019-05-07T23:45:04.706Z,6.40
2019-05-07T23:47:33.275Z,6.50
2019-05-07T23:50:02.200Z,6.40
2019-05-07T23:52:30.738Z,6.50
2019-05-07T23:54:59.362Z,6.40
2019-05-07T23:57:27.959Z,6.50
2019-05-07T23:59:56.614Z,6.50
